Time;durP1;ratioP1;P1;durP2;ratioP2;P2;SDS_P1;SDS_P2;PMS_P1;PMS_P2;Temp;Humidity;BMP_temperature;BMP_pressure;BME280_temperature;BME280_humidity;BME280_pressure;Samples;Min_cycle;Max_cycle;Signal;HPM_P1;HPM_P2
2023/04/29 00:00:21;;;;;;;18.02;7.55;;;;;;;14.58;60.00;99611.91;4349629;32;20126;-88
2023/04/29 00:02:46;;;;;;;21.42;7.72;;;;;;;14.69;60.00;99614.03;4362712;32;20154;-88
2023/04/29 00:05:12;;;;;;;19.48;8.23;;;;;;;14.67;60.00;99613.25;4358550;32;20465;-87
2023/04/29 00:07:37;;;;;;;20.70;7.43;;;;;;;14.53;59.99;99618.31;4354366;32;20386;-89
2023/04/29 00:10:03;;;;;;;20.67;6.82;;;;;;;14.70;60.00;99610.47;4361838;32;20165;-88
2023/04/29 00:12:30;;;;;;;21.48;8.18;;;;;;;14.54;59.99;99604.31;4375052;32;20122;-88
2023/04/29 00:14:56;;;;;;;17.48;8.23;;;;;;;14.50;59.99;99608.00;4349856;32;20083;-89
2023/04/29 00:17:21;;;;;;;17.58;7.37;;;;;;;14.60;60.00;99607.44;4350174;32;20150;-89
2023/04/29 00:19:47;;;;;;;22.85;8.27;;;;;;;14.56;60.00;99605.06;4364827;32;20132;-89
2023/04/29 00:22:12;;;;;;;22.33;7.20;;;;;;;14.51;59.99;99604.47;4352538;32;20190;-88
2023/04/29 00:24:38;;;;;;;22.27;8.20;;;;;;;14.70;60.00;99600.00;4363299;32;20135;-89
2023/04/29 00:27:05;;;;;;;16.48;6.70;;;;;;;14.71;60.01;99596.44;4359873;32;20110;-89
2023/04/29 00:29:30;;;;;;;21.37;6.72;;;;;;;14.54;59.99;99597.28;4365109;32;20130;-89
2023/04/29 00:31:55;;;;;;;16.33;7.22;;;;;;;14.64;60.01;99600.28;4377922;32;20113;-88
2023/04/29 00:34:21;;;;;;;14.80;6.78;;;;;;;14.57;59.99;99599.75;4361694;32;20133;-88
2023/04/29 00:36:46;;;;;;;21.48;7.47;;;;;;;14.52;59.99;99601.75;4364048;32;20087;-88
2023/04/29 00:39:12;;;;;;;22.70;7.32;;;;;;;14.57;60.00;99606.75;4351791;32;20110;-88
2023/04/29 00:41:38;;;;;;;14.65;7.00;;;;;;;14.59;60.00;99613.63;4363900;32;20184;-89
2023/04/29 00:44:03;;;;;;;19.75;7.53;;;;;;;14.42;59.99;99611.81;4351681;32;20114;-89
2023/04/29 00:46:28;;;;;;;19.05;7.15;;;;;;;14.40;59.99;99616.28;4377836;32;20087;-89
2023/04/29 00:48:54;;;;;;;20.48;7.53;;;;;;;14.59;60.00;99611.00;4364684;32;20146;-90
2023/04/29 00:51:19;;;;;;;20.58;7.60;;;;;;;14.45;59.98;99616.09;4364977;32;20119;-90
2023/04/29 00:53:45;;;;;;;19.73;7.35;;;;;;;14.38;59.98;99617.28;4340063;32;20091;-90
2023/04/29 00:56:10;;;;;;;19.52;7.28;;;;;;;14.51;59.99;99617.56;4352559;32;20122;-89
2023/04/29 00:58:38;;;;;;;23.48;6.65;;;;;;;14.35;59.98;99614.81;4352436;32;20158;-89
2023/04/29 01:01:03;;;;;;;17.00;7.15;;;;;;;14.47;59.98;99618.63;4352526;32;20137;-88
2023/04/29 01:03:32;;;;;;;17.17;7.50;;;;;;;14.43;59.98;99610.94;4364637;32;20087;-91
2023/04/29 01:06:22;;;;;;;18.33;7.65;;;;;;;14.48;60.00;99607.25;4362046;32;20091;-90
2023/04/29 01:09:06;;;;;;;;;;;;;;;14.48;60.00;99602.00;4351123;32;20194;-91
2023/04/29 01:11:37;;;;;;;13.57;7.35;;;;;;;14.56;60.00;99611.16;4377629;32;19998;-90
2023/04/29 01:14:02;;;;;;;21.20;8.23;;;;;;;14.40;59.99;99610.19;4354177;32;20091;-91
2023/04/29 01:16:38;;;;;;;17.25;6.30;;;;;;;14.46;59.98;99615.19;4356747;32;20144;-91
2023/04/29 01:19:39;;;;;;;21.37;7.40;;;;;;;14.59;60.00;99604.91;4366277;32;20181;-89
2023/04/29 01:22:04;;;;;;;11.57;5.60;;;;;;;14.60;60.00;99598.75;4365938;32;20102;-91
2023/04/29 01:24:30;;;;;;;18.23;7.03;;;;;;;14.59;59.99;99597.91;4353723;32;20601;-91
2023/04/29 01:27:01;;;;;;;12.60;6.10;;;;;;;14.64;60.00;99602.91;4353822;32;20143;-90
2023/04/29 01:29:44;;;;;;;14.65;6.57;;;;;;;14.52;59.99;99599.16;4366323;32;20098;-91
2023/04/29 01:32:24;;;;;;;14.23;6.03;;;;;;;14.53;59.99;99600.84;4379747;32;20612;-91
2023/04/29 01:35:16;;;;;;;10.20;5.75;;;;;;;14.61;59.99;99592.59;4367222;32;20486;-92
2023/04/29 01:38:03;;;;;;;10.52;6.12;;;;;;;14.61;59.99;99590.81;4366901;32;20109;-91
2023/04/29 01:40:42;;;;;;;13.70;6.10;;;;;;;14.42;59.98;99596.09;4378501;32;20170;-91
2023/04/29 01:43:10;;;;;;;14.30;6.53;;;;;;;14.41;59.99;99580.47;4354614;32;20111;-92
2023/04/29 01:45:39;;;;;;;12.40;5.90;;;;;;;14.40;59.99;99582.22;4342959;32;20153;-92
2023/04/29 01:48:04;;;;;;;10.35;5.95;;;;;;;14.47;59.98;99581.97;4355631;32;20707;-91
2023/04/29 01:50:30;;;;;;;15.07;5.87;;;;;;;14.50;59.99;99576.56;4354012;32;21042;-93
2023/04/29 01:52:55;;;;;;;8.05;4.95;;;;;;;14.50;59.99;99584.44;4353219;32;35442;-93
2023/04/29 01:55:21;;;;;;;11.38;5.25;;;;;;;14.50;59.99;99585.28;4352508;32;30153;-91
2023/04/29 01:57:46;;;;;;;12.55;5.37;;;;;;;14.50;59.99;99577.41;4341181;32;20149;-90
2023/04/29 02:00:12;;;;;;;9.18;5.37;;;;;;;14.59;60.00;99576.94;4352850;32;30912;-90
2023/04/29 02:02:37;;;;;;;15.43;5.80;;;;;;;14.36;59.98;99585.94;4353329;32;20158;-90
2023/04/29 02:05:03;;;;;;;14.38;5.82;;;;;;;14.41;59.99;99589.16;4341020;32;20094;-91
2023/04/29 02:07:28;;;;;;;10.50;5.95;;;;;;;14.39;59.99;99591.00;4353293;32;20365;-89
2023/04/29 02:09:54;;;;;;;11.45;5.30;;;;;;;14.49;60.00;99590.59;4352770;32;20156;-90
2023/04/29 02:12:19;;;;;;;11.75;5.18;;;;;;;14.41;59.99;99594.41;4340725;32;20153;-91
2023/04/29 02:14:46;;;;;;;12.43;5.87;;;;;;;14.39;59.98;99595.41;4352793;32;20114;-94
2023/04/29 02:17:12;;;;;;;13.93;5.97;;;;;;;14.35;59.98;99586.84;4353714;32;20109;-91
2023/04/29 02:19:37;;;;;;;17.92;6.28;;;;;;;14.33;59.99;99590.47;4353109;32;20170;-88
2023/04/29 02:22:03;;;;;;;15.02;6.47;;;;;;;14.42;59.98;99583.00;4364803;32;20153;-88
2023/04/29 02:24:28;;;;;;;15.00;6.12;;;;;;;14.41;59.99;99583.06;4377592;32;20098;-88
2023/04/29 02:26:54;;;;;;;8.55;4.80;;;;;;;14.36;59.98;99583.31;4377081;32;20098;-88
2023/04/29 02:29:20;;;;;;;12.57;5.97;;;;;;;14.29;59.97;99589.78;4352665;32;20123;-87
2023/04/29 02:31:45;;;;;;;13.35;6.22;;;;;;;14.37;59.98;99585.00;4377264;32;20119;-89
2023/04/29 02:34:10;;;;;;;11.77;5.22;;;;;;;14.30;59.97;99578.38;4352725;32;20444;-89
2023/04/29 02:36:36;;;;;;;11.57;5.78;;;;;;;14.44;59.98;99569.88;4339865;32;20086;-89
2023/04/29 02:39:01;;;;;;;14.07;5.85;;;;;;;14.47;59.99;99568.88;4352738;32;20403;-89
2023/04/29 02:41:27;;;;;;;15.60;6.28;;;;;;;14.41;59.99;99567.37;4351307;32;20117;-90
2023/04/29 02:43:52;;;;;;;11.63;5.15;;;;;;;14.29;59.98;99566.22;4352477;32;20182;-89
2023/04/29 02:46:18;;;;;;;15.70;6.30;;;;;;;14.20;59.97;99569.31;4352391;32;20117;-90
2023/04/29 02:48:43;;;;;;;11.65;5.45;;;;;;;14.32;59.97;99558.22;4352582;32;20159;-89
2023/04/29 02:51:09;;;;;;;13.32;5.53;;;;;;;14.30;59.97;99561.84;4365043;32;20103;-90
2023/04/29 02:53:34;;;;;;;14.30;5.78;;;;;;;14.26;59.98;99562.91;4353886;32;20122;-91
2023/04/29 02:56:00;;;;;;;15.30;6.25;;;;;;;14.18;59.98;99552.81;4354431;32;23914;-92
2023/04/29 02:58:25;;;;;;;17.92;6.53;;;;;;;14.14;59.97;99559.13;4353407;32;20123;-92
2023/04/29 03:00:51;;;;;;;15.52;6.03;;;;;;;14.19;59.97;99562.34;4352795;32;20141;-89
2023/04/29 03:03:16;;;;;;;13.55;5.82;;;;;;;14.20;59.97;99561.47;4352403;32;20146;-89
2023/04/29 03:05:42;;;;;;;15.52;6.00;;;;;;;14.09;59.97;99572.44;4339708;32;20133;-90
2023/04/29 03:08:09;;;;;;;15.68;6.55;;;;;;;13.96;59.97;99573.09;4352662;32;20165;-90
2023/04/29 03:10:34;;;;;;;14.93;6.18;;;;;;;13.89;59.96;99566.47;4365658;32;20111;-90
2023/04/29 03:13:00;;;;;;;14.25;5.80;;;;;;;13.84;59.96;99566.72;4352432;32;20149;-90
2023/04/29 03:15:25;;;;;;;16.50;5.93;;;;;;;13.82;59.95;99572.00;4339945;32;20151;-90
2023/04/29 03:17:51;;;;;;;18.70;6.70;;;;;;;13.92;59.95;99569.78;4339984;32;20507;-92
2023/04/29 03:20:16;;;;;;;15.20;6.18;;;;;;;13.97;59.96;99572.22;4340381;32;20182;-91
2023/04/29 03:22:42;;;;;;;20.25;6.90;;;;;;;13.93;59.95;99575.88;4340235;32;20141;-90
2023/04/29 03:25:09;;;;;;;16.90;6.93;;;;;;;13.89;59.96;99574.34;4339942;32;20143;-91
2023/04/29 03:27:34;;;;;;;15.32;6.37;;;;;;;13.89;59.96;99576.94;4352907;32;20114;-91
2023/04/29 03:30:00;;;;;;;22.55;7.35;;;;;;;13.88;59.96;99572.63;4352312;32;20202;-91
2023/04/29 03:32:25;;;;;;;22.20;8.45;;;;;;;13.93;59.95;99571.47;4352267;32;20162;-90
2023/04/29 03:34:51;;;;;;;19.27;7.20;;;;;;;13.84;59.95;99574.56;4352562;32;20074;-88
2023/04/29 03:37:16;;;;;;;24.42;8.07;;;;;;;13.97;59.96;99567.81;4377001;32;20117;-87
2023/04/29 03:39:42;;;;;;;19.15;7.15;;;;;;;14.03;59.97;99574.53;4352032;32;20432;-89
2023/04/29 03:42:07;;;;;;;17.85;7.07;;;;;;;14.13;59.97;99586.22;4352086;32;20179;-87
2023/04/29 03:44:32;;;;;;;28.60;9.20;;;;;;;13.94;59.96;99583.66;4364419;32;20144;-88
2023/04/29 03:46:58;;;;;;;19.55;7.90;;;;;;;14.00;59.96;99591.22;4339533;32;20124;-87
2023/04/29 03:49:24;;;;;;;20.02;7.97;;;;;;;13.89;59.96;99598.72;4364458;32;20115;-87
2023/04/29 03:51:49;;;;;;;18.67;7.28;;;;;;;13.91;59.96;99598.66;4376341;32;20149;-87
2023/04/29 03:54:15;;;;;;;20.67;7.65;;;;;;;13.98;59.96;99594.84;4376554;32;20115;-87
2023/04/29 03:56:40;;;;;;;20.77;6.60;;;;;;;13.91;59.96;99607.34;4376804;32;20127;-87
2023/04/29 03:59:06;;;;;;;21.40;7.78;;;;;;;14.02;59.97;99607.69;4351561;32;20174;-87
2023/04/29 04:01:32;;;;;;;20.98;8.23;;;;;;;14.09;59.96;99603.00;4364379;32;20494;-87
2023/04/29 04:03:57;;;;;;;21.62;7.62;;;;;;;14.14;59.97;99607.09;4376764;32;20102;-87
2023/04/29 04:06:22;;;;;;;17.23;6.97;;;;;;;14.16;59.97;99603.53;4351425;32;20185;-87
2023/04/29 04:08:48;;;;;;;22.92;7.53;;;;;;;14.05;59.96;99604.09;4364191;32;20103;-87
2023/04/29 04:11:14;;;;;;;17.17;7.18;;;;;;;14.08;59.96;99606.53;4351057;32;20107;-88
2023/04/29 04:13:42;;;;;;;20.67;7.00;;;;;;;14.08;59.97;99606.53;4351806;32;20094;-88
2023/04/29 04:16:11;;;;;;;19.70;7.05;;;;;;;14.14;59.97;99604.47;4351929;32;20115;-88
2023/04/29 04:18:37;;;;;;;18.67;7.70;;;;;;;14.11;59.97;99603.78;4351171;32;24186;-89
2023/04/29 04:21:09;;;;;;;18.15;7.50;;;;;;;14.16;59.97;99608.78;4364022;32;20102;-87
2023/04/29 04:23:34;;;;;;;20.52;8.15;;;;;;;14.14;59.97;99603.63;4364124;32;20095;-89
2023/04/29 04:26:00;;;;;;;25.25;8.63;;;;;;;14.06;59.97;99606.63;4364124;32;20099;-90
2023/04/29 04:28:25;;;;;;;22.33;8.55;;;;;;;14.13;59.97;99610.63;4378024;32;20095;-90
2023/04/29 04:30:51;;;;;;;24.08;8.10;;;;;;;14.13;59.97;99609.78;4356997;32;20158;-89
2023/04/29 04:33:16;;;;;;;20.75;8.18;;;;;;;14.15;59.97;99607.94;4370890;32;20133;-89
2023/04/29 04:35:43;;;;;;;28.60;7.55;;;;;;;14.17;59.96;99611.31;4366473;32;20465;-89
2023/04/29 04:38:10;;;;;;;23.25;8.35;;;;;;;14.08;59.97;99611.78;4351284;32;27260;-90
2023/04/29 04:40:36;;;;;;;22.08;7.72;;;;;;;14.08;59.96;99611.78;4339887;32;20495;-88
2023/04/29 04:43:01;;;;;;;21.33;8.38;;;;;;;14.11;59.97;99609.00;4363931;32;20142;-88
2023/04/29 04:45:30;;;;;;;21.30;7.80;;;;;;;14.08;59.96;99610.00;4364004;32;20108;-89
2023/04/29 04:47:55;;;;;;;23.17;7.97;;;;;;;14.25;59.98;99603.97;4352700;32;20084;-89
2023/04/29 04:50:21;;;;;;;20.33;7.47;;;;;;;14.22;59.98;99604.13;4368097;32;20125;-89
2023/04/29 04:52:46;;;;;;;22.52;8.45;;;;;;;14.26;59.98;99604.81;4365733;32;20133;-89
2023/04/29 04:55:12;;;;;;;26.80;8.25;;;;;;;14.34;59.99;99606.09;4365354;32;32479;-87
2023/04/29 04:57:37;;;;;;;24.27;7.05;;;;;;;14.34;59.99;99594.78;4352566;32;20115;-89
2023/04/29 05:00:04;;;;;;;20.27;7.47;;;;;;;14.47;59.99;99592.44;4363438;32;29587;-87
2023/04/29 05:02:29;;;;;;;17.00;6.30;;;;;;;14.41;59.99;99589.16;4376437;32;20361;-87
2023/04/29 05:04:54;;;;;;;26.08;6.97;;;;;;;14.53;59.99;99586.91;4364977;32;20102;-87
2023/04/29 05:07:20;;;;;;;17.73;6.00;;;;;;;14.53;59.99;99598.22;4379466;32;20109;-88
2023/04/29 05:09:45;;;;;;;15.18;6.03;;;;;;;14.55;60.00;99596.37;4366316;32;20131;-87
2023/04/29 05:12:11;;;;;;;13.70;5.28;;;;;;;14.61;60.00;99589.97;4352828;32;25671;-89
2023/04/29 05:14:36;;;;;;;17.17;6.05;;;;;;;14.51;59.99;99586.12;4353647;32;20111;-89
2023/04/29 05:17:02;;;;;;;15.20;5.35;;;;;;;14.50;59.99;99590.53;4352764;32;28989;-89
2023/04/29 05:19:27;;;;;;;12.77;6.10;;;;;;;14.54;59.99;99593.81;4352763;32;20161;-89
2023/04/29 05:21:53;;;;;;;18.73;6.10;;;;;;;14.59;59.99;99597.91;4366310;32;20370;-88
2023/04/29 05:24:18;;;;;;;17.58;6.25;;;;;;;14.54;59.99;99604.31;4368371;32;20143;-92
2023/04/29 05:26:44;;;;;;;18.45;6.55;;;;;;;14.46;59.98;99601.22;4355833;32;20447;-93
2023/04/29 05:29:10;;;;;;;19.70;7.30;;;;;;;14.46;59.98;99602.09;4356045;32;20138;-88
2023/04/29 05:31:36;;;;;;;18.05;6.50;;;;;;;14.37;59.98;99603.34;4365466;32;20839;-93
2023/04/29 05:34:02;;;;;;;16.23;6.28;;;;;;;14.53;60.00;99600.00;4353748;32;20102;-94
2023/04/29 05:36:27;;;;;;;15.73;7.40;;;;;;;14.50;59.99;99608.84;4366958;32;20095;-92
2023/04/29 05:38:53;;;;;;;17.45;7.18;;;;;;;14.49;59.99;99617.63;4353848;32;20086;-88
2023/04/29 05:41:19;;;;;;;19.92;7.45;;;;;;;14.53;59.99;99610.47;4353301;32;20090;-87
2023/04/29 05:43:44;;;;;;;20.70;6.75;;;;;;;14.66;60.00;99615.00;4368666;32;20448;-91
2023/04/29 05:46:10;;;;;;;21.52;6.72;;;;;;;14.56;59.99;99610.31;4340947;32;20107;-88
2023/04/29 05:48:35;;;;;;;17.55;7.22;;;;;;;14.72;60.01;99611.22;4353520;32;20095;-89
2023/04/29 05:51:01;;;;;;;20.05;7.10;;;;;;;14.77;60.00;99606.59;4366669;32;20444;-89
2023/04/29 05:53:26;;;;;;;17.33;6.40;;;;;;;14.87;60.02;99609.56;4373054;32;20169;-90
2023/04/29 05:55:52;;;;;;;14.20;6.18;;;;;;;14.83;60.01;99611.53;4355727;32;20126;-89
2023/04/29 05:58:17;;;;;;;13.18;5.93;;;;;;;14.82;60.01;99619.47;4365565;32;20094;-89
2023/04/29 06:00:43;;;;;;;14.65;5.75;;;;;;;14.88;60.01;99627.00;4353432;32;20458;-89
2023/04/29 06:03:10;;;;;;;12.60;6.15;;;;;;;15.04;60.02;99626.13;4355273;32;20144;-89
2023/04/29 06:05:35;;;;;;;11.65;5.18;;;;;;;15.12;60.03;99623.09;4353731;32;20203;-88
2023/04/29 06:08:01;;;;;;;12.10;5.00;;;;;;;15.24;60.04;99619.84;4353178;32;20095;-88
2023/04/29 06:10:27;;;;;;;8.95;4.32;;;;;;;15.38;60.04;99619.13;4353570;32;20102;-88
2023/04/29 06:12:52;;;;;;;11.02;4.90;;;;;;;15.48;60.05;99614.22;4341288;32;20111;-88
2023/04/29 06:15:18;;;;;;;7.78;3.87;;;;;;;15.56;60.05;99612.00;4352066;32;20201;-88
2023/04/29 06:17:43;;;;;;;7.62;4.68;;;;;;;15.77;60.06;99610.03;4364867;32;29597;-87
2023/04/29 06:20:09;;;;;;;8.65;4.93;;;;;;;15.87;60.07;99613.84;4365546;32;20113;-88
2023/04/29 06:22:35;;;;;;;9.00;4.60;;;;;;;15.88;60.06;99605.03;4352807;32;20353;-88
2023/04/29 06:25:00;;;;;;;11.30;4.57;;;;;;;15.95;60.08;99606.38;4355150;32;20103;-88
2023/04/29 06:27:27;;;;;;;9.93;5.00;;;;;;;16.00;60.07;99603.47;4353287;32;20121;-87
2023/04/29 06:29:52;;;;;;;8.43;4.65;;;;;;;15.85;60.07;99607.81;4353641;32;20535;-88
2023/04/29 06:32:17;;;;;;;8.18;4.70;;;;;;;15.93;60.07;99613.50;4353752;32;20171;-88
2023/04/29 06:34:44;;;;;;;7.53;4.65;;;;;;;15.87;60.07;99611.22;4352562;32;20525;-88
2023/04/29 06:37:09;;;;;;;8.73;4.35;;;;;;;16.04;60.07;99599.75;4352911;32;20106;-88
2023/04/29 06:39:35;;;;;;;12.27;5.05;;;;;;;16.06;60.07;99616.25;4365363;32;20094;-88
2023/04/29 06:42:00;;;;;;;9.52;4.82;;;;;;;16.05;60.07;99610.16;4352364;32;24624;-87
2023/04/29 06:44:26;;;;;;;10.70;4.85;;;;;;;16.23;60.08;99610.91;4374078;32;20166;-88
2023/04/29 06:46:52;;;;;;;5.68;4.15;;;;;;;16.34;60.09;99610.28;4375486;32;20106;-88
2023/04/29 06:49:17;;;;;;;7.80;4.60;;;;;;;16.30;60.08;99606.13;4353160;32;20090;-88
2023/04/29 06:51:44;;;;;;;5.82;4.43;;;;;;;16.32;60.09;99606.88;4353399;32;20159;-89
2023/04/29 06:54:09;;;;;;;9.45;4.12;;;;;;;16.31;60.08;99607.81;4352321;32;32152;-88
2023/04/29 06:56:35;;;;;;;7.50;4.62;;;;;;;16.39;60.10;99608.25;4364978;32;20138;-88
2023/04/29 06:59:00;;;;;;;20.73;4.82;;;;;;;16.44;60.09;99611.44;4352426;32;20098;-88
2023/04/29 07:01:25;;;;;;;9.35;4.97;;;;;;;16.51;60.10;99608.34;4352885;32;20191;-88
2023/04/29 07:03:51;;;;;;;8.63;4.65;;;;;;;16.52;60.10;99610.03;4379018;32;20887;-88
2023/04/29 07:06:16;;;;;;;10.85;4.07;;;;;;;16.61;60.10;99611.31;4357309;32;20482;-88
2023/04/29 07:08:43;;;;;;;8.13;3.67;;;;;;;16.63;60.11;99603.34;4392674;32;20070;-88
2023/04/29 07:11:09;;;;;;;11.35;4.22;;;;;;;16.66;60.11;99604.03;4365714;32;20109;-88
2023/04/29 07:13:34;;;;;;;6.82;4.68;;;;;;;16.72;60.11;99610.69;4353868;32;20099;-88
2023/04/29 07:16:00;;;;;;;6.57;3.97;;;;;;;16.75;60.11;99611.34;4352564;32;20158;-89
2023/04/29 07:18:25;;;;;;;8.23;5.03;;;;;;;16.64;60.11;99619.00;4352644;32;20165;-88
2023/04/29 07:20:51;;;;;;;7.90;4.65;;;;;;;16.62;60.10;99615.62;4352562;32;20456;-88
2023/04/29 07:23:17;;;;;;;7.82;5.05;;;;;;;16.76;60.11;99606.94;4352754;32;20137;-89
2023/04/29 07:25:42;;;;;;;8.13;4.45;;;;;;;16.73;60.11;99609.75;4352804;32;20114;-88
2023/04/29 07:28:08;;;;;;;6.78;4.72;;;;;;;16.93;60.12;99611.19;4352674;32;20227;-89
2023/04/29 07:30:33;;;;;;;10.55;5.03;;;;;;;17.18;60.13;99603.50;4352793;32;20150;-88
2023/04/29 07:32:59;;;;;;;6.97;4.25;;;;;;;17.53;60.15;99608.38;4353101;32;20114;-89
2023/04/29 07:35:24;;;;;;;10.60;4.55;;;;;;;17.92;60.18;99600.59;4353601;32;20090;-89
2023/04/29 07:37:50;;;;;;;5.93;4.28;;;;;;;18.13;60.19;99597.50;4381617;32;20109;-89
2023/04/29 07:40:16;;;;;;;9.32;4.97;;;;;;;18.31;60.20;99597.16;4352528;32;20134;-89
2023/04/29 07:42:41;;;;;;;14.25;5.07;;;;;;;18.27;60.19;99597.47;4352487;32;20102;-91
2023/04/29 07:45:07;;;;;;;10.43;4.65;;;;;;;18.25;60.19;99592.28;4352393;32;20376;-90
2023/04/29 07:47:32;;;;;;;11.27;5.43;;;;;;;18.35;60.20;99592.53;4352486;32;20372;-90
2023/04/29 07:49:58;;;;;;;9.82;5.03;;;;;;;18.35;60.20;99597.78;4352523;32;20184;-90
2023/04/29 07:52:23;;;;;;;9.45;5.22;;;;;;;18.57;60.21;99598.03;4355061;32;20143;-91
2023/04/29 07:54:48;;;;;;;8.63;4.85;;;;;;;18.83;60.22;99598.09;4352531;32;20143;-88
2023/04/29 07:57:14;;;;;;;7.82;4.10;;;;;;;19.02;60.24;99602.00;4352916;32;20116;-89
2023/04/29 07:59:40;;;;;;;6.57;4.55;;;;;;;19.42;60.25;99614.22;4352802;32;20125;-89
2023/04/29 08:02:05;;;;;;;6.40;4.22;;;;;;;19.58;60.26;99604.28;4352464;32;20174;-91
2023/04/29 08:04:30;;;;;;;7.15;3.83;;;;;;;19.71;60.27;99609.53;4339764;32;20154;-88
2023/04/29 08:06:56;;;;;;;6.57;4.45;;;;;;;19.66;60.27;99603.75;4364262;32;20133;-87
2023/04/29 08:09:21;;;;;;;10.13;5.00;;;;;;;19.73;60.27;99608.47;4352098;32;20429;-89
2023/04/29 08:11:47;;;;;;;7.50;4.37;;;;;;;19.87;60.28;99607.47;4352091;32;20153;-89
2023/04/29 08:14:12;;;;;;;11.38;4.55;;;;;;;20.05;60.29;99608.78;4352281;32;20469;-90
2023/04/29 08:16:37;;;;;;;8.70;3.75;;;;;;;20.12;60.29;99603.91;4366509;32;20106;-89
2023/04/29 08:19:03;;;;;;;5.95;3.55;;;;;;;20.18;60.30;99608.72;4351822;32;20138;-89
2023/04/29 08:21:30;;;;;;;6.28;3.50;;;;;;;20.22;60.30;99610.19;4352265;32;20122;-90
2023/04/29 08:23:56;;;;;;;7.12;3.22;;;;;;;20.20;60.29;99606.81;4351335;32;20117;-90
2023/04/29 08:26:21;;;;;;;5.43;3.75;;;;;;;20.26;60.30;99601.06;4351883;32;20111;-90
2023/04/29 08:28:47;;;;;;;8.57;3.78;;;;;;;20.55;60.32;99604.19;4351806;32;20162;-89
2023/04/29 08:31:19;;;;;;;9.18;3.60;;;;;;;20.70;60.33;99594.25;4352175;32;20121;-89
2023/04/29 08:33:45;;;;;;;10.32;4.32;;;;;;;20.67;60.32;99594.50;4352302;32;20526;-90
2023/04/29 08:36:10;;;;;;;7.43;3.80;;;;;;;20.75;60.32;99598.25;4354511;32;20062;-90
2023/04/29 08:38:36;;;;;;;5.47;3.97;;;;;;;20.67;60.32;99592.69;4364836;32;20178;-90
2023/04/29 08:41:01;;;;;;;6.90;3.47;;;;;;;20.86;60.33;99592.13;4366435;32;20154;-89
2023/04/29 08:43:27;;;;;;;6.75;3.30;;;;;;;21.01;60.35;99595.38;4353646;32;20141;-90
2023/04/29 08:45:52;;;;;;;5.00;2.90;;;;;;;21.23;60.35;99591.91;4353601;32;20182;-89
2023/04/29 08:48:17;;;;;;;4.97;3.47;;;;;;;21.44;60.37;99588.44;4353573;32;20883;-90
2023/04/29 08:50:43;;;;;;;8.02;3.20;;;;;;;21.60;60.37;99593.38;4353927;32;20138;-89
2023/04/29 08:53:10;;;;;;;7.30;3.72;;;;;;;21.53;60.36;99597.47;4353583;32;20432;-88
2023/04/29 08:55:37;;;;;;;9.60;3.30;;;;;;;21.55;60.37;99611.44;4381010;32;20082;-89
2023/04/29 08:58:02;;;;;;;4.87;3.00;;;;;;;21.47;60.36;99607.69;4378493;32;20185;-89
2023/04/29 09:00:30;;;;;;;5.05;3.33;;;;;;;21.55;60.37;99611.44;4353676;32;20158;-89
2023/04/29 09:02:56;;;;;;;7.28;3.28;;;;;;;21.39;60.37;99611.81;4353531;32;20121;-89
2023/04/29 09:05:21;;;;;;;13.00;3.17;;;;;;;21.43;60.36;99607.09;4353379;32;20111;-89
2023/04/29 09:07:47;;;;;;;6.50;3.20;;;;;;;21.61;60.37;99604.81;4353634;32;20264;-88
2023/04/29 09:10:12;;;;;;;5.93;3.05;;;;;;;21.89;60.39;99611.38;4365374;32;23918;-88
2023/04/29 09:12:38;;;;;;;6.22;3.40;;;;;;;21.81;60.38;99605.88;4340978;32;20186;-89
2023/04/29 09:15:03;;;;;;;4.43;2.80;;;;;;;21.70;60.38;99604.06;4355554;32;20148;-88
2023/04/29 09:17:45;;;;;;;5.72;3.53;;;;;;;21.64;60.38;99615.16;4353314;32;20154;-89
2023/04/29 09:20:20;;;;;;;7.82;3.30;;;;;;;21.65;60.38;99601.78;4353636;32;20178;-88
2023/04/29 09:22:53;;;;;;;5.18;3.10;;;;;;;21.76;60.38;99607.06;4379383;32;20113;-88
2023/04/29 09:25:19;;;;;;;5.32;3.08;;;;;;;21.74;60.38;99605.50;4364758;32;20157;-89
2023/04/29 09:27:46;;;;;;;9.00;3.85;;;;;;;21.67;60.38;99606.97;4354027;32;20188;-87
2023/04/29 09:30:12;;;;;;;8.32;3.53;;;;;;;21.83;60.39;99609.22;4383325;32;20098;-88
2023/04/29 09:32:38;;;;;;;6.47;3.15;;;;;;;21.93;60.39;99607.50;4360194;32;20095;-90
2023/04/29 09:35:26;;;;;;;5.68;3.33;;;;;;;22.07;60.39;99606.44;4353755;32;20149;-89
2023/04/29 09:38:11;;;;;;;10.50;3.45;;;;;;;22.28;60.41;99607.31;4354352;32;20185;-88
2023/04/29 09:40:36;;;;;;;6.87;2.65;;;;;;;22.12;60.40;99614.84;4366021;32;20110;-89
2023/04/29 09:43:02;;;;;;;5.15;2.90;;;;;;;22.22;60.41;99602.50;4365431;32;20138;-88
2023/04/29 09:45:37;;;;;;;6.32;3.00;;;;;;;22.34;60.42;99604.16;4378739;32;20074;-88
2023/04/29 09:48:03;;;;;;;9.48;3.50;;;;;;;22.42;60.41;99607.00;4365895;32;20071;-87
2023/04/29 09:50:30;;;;;;;7.43;3.12;;;;;;;22.50;60.42;99601.06;4353676;32;20503;-89
2023/04/29 09:52:56;;;;;;;7.15;3.08;;;;;;;22.68;60.43;99608.31;4356114;32;20120;-88
2023/04/29 09:55:21;;;;;;;5.60;3.87;;;;;;;22.60;60.43;99594.84;4365541;32;20103;-89
2023/04/29 09:57:47;;;;;;;7.90;3.70;;;;;;;22.62;60.42;99595.56;4352922;32;20175;-88
2023/04/29 10:00:13;;;;;;;5.40;3.22;;;;;;;22.84;60.44;99588.47;4365300;32;20102;-90
2023/04/29 10:02:40;;;;;;;3.40;2.58;;;;;;;22.50;60.43;99596.59;4365626;32;20118;-90
2023/04/29 10:05:06;;;;;;;5.53;2.62;;;;;;;22.65;60.44;99594.47;4353103;32;20160;-89
2023/04/29 10:07:31;;;;;;;7.25;3.00;;;;;;;22.68;60.44;99594.19;4355820;32;20388;-89
2023/04/29 10:09:57;;;;;;;10.00;6.53;;;;;;;22.84;60.44;99591.97;4361263;32;34076;-90
2023/04/29 10:12:23;;;;;;;7.45;3.67;;;;;;;22.95;60.45;99588.41;4368480;32;20149;-89
2023/04/29 10:14:52;;;;;;;8.57;4.40;;;;;;;;;;4365177;32;20112;-89
2023/04/29 10:17:22;;;;;;;5.67;3.43;;;;;;;23.20;60.46;99597.75;4379282;32;20103;-89
2023/04/29 10:19:57;;;;;;;5.90;2.75;;;;;;;23.25;60.46;99590.22;4352138;32;20098;-88
2023/04/29 10:22:29;;;;;;;4.82;3.00;;;;;;;23.26;60.45;99589.25;4353434;32;20082;-88
2023/04/29 10:24:54;;;;;;;9.82;3.00;;;;;;;23.25;60.46;99590.22;4352997;32;20483;-87
2023/04/29 10:27:20;;;;;;;5.85;2.80;;;;;;;23.27;60.47;99589.09;4352028;32;34742;-90
2023/04/29 10:29:45;;;;;;;6.07;3.03;;;;;;;23.54;60.47;99587.66;4353188;32;20141;-88
2023/04/29 10:32:11;;;;;;;7.15;3.47;;;;;;;23.72;60.49;99580.75;4354285;32;20087;-91
2023/04/29 10:34:38;;;;;;;6.15;3.22;;;;;;;23.43;60.48;99578.00;4352684;32;20119;-88
2023/04/29 10:37:05;;;;;;;6.53;3.53;;;;;;;23.58;60.48;99568.69;4365244;32;20122;-88
2023/04/29 10:39:59;;;;;;;6.37;3.25;;;;;;;23.67;60.49;99566.19;4352574;32;20115;-89
2023/04/29 10:42:34;;;;;;;6.65;2.92;;;;;;;23.81;60.49;99558.66;4364410;32;20121;-90
2023/04/29 10:45:22;;;;;;;7.35;2.75;;;;;;;23.99;60.50;99553.50;4365204;32;20083;-89
2023/04/29 10:48:04;;;;;;;5.87;2.92;;;;;;;24.33;60.52;99545.13;4352743;32;20129;-88
2023/04/29 10:50:48;;;;;;;6.65;2.78;;;;;;;24.60;60.54;99539.03;4380320;32;20432;-90
2023/04/29 10:53:19;;;;;;;10.70;2.78;;;;;;;24.32;60.52;99538.13;4378643;32;20579;-89
2023/04/29 10:56:18;;;;;;;6.43;2.55;;;;;;;24.49;60.52;99532.91;4364982;32;20095;-88
2023/04/29 10:58:44;;;;;;;5.85;3.75;;;;;;;24.48;60.53;99522.41;4356279;32;20110;-89
2023/04/29 11:01:11;;;;;;;8.45;3.50;;;;;;;24.33;60.52;99526.50;4351970;32;20141;-89
2023/04/29 11:03:54;;;;;;;7.28;3.45;;;;;;;24.41;60.52;99521.31;4352666;32;20090;-89
2023/04/29 11:06:24;;;;;;;5.00;3.15;;;;;;;24.50;60.52;99515.13;4379331;32;20463;-91
2023/04/29 11:09:02;;;;;;;;;;;;;;;24.63;60.54;99509.50;4355959;32;20095;-89
2023/04/29 11:11:51;;;;;;;8.32;3.83;;;;;;;24.78;60.54;99508.03;4356883;32;19963;-90
2023/04/29 11:14:21;;;;;;;5.60;3.20;;;;;;;25.08;60.56;99509.66;4354348;32;20151;-90
2023/04/29 11:16:48;;;;;;;4.80;2.80;;;;;;;25.11;60.56;99509.34;4353628;32;20087;-89
2023/04/29 11:19:14;;;;;;;5.30;3.45;;;;;;;25.13;60.55;99510.03;4352939;32;20190;-89
2023/04/29 11:21:40;;;;;;;4.85;3.15;;;;;;;25.10;60.56;99502.34;4378243;32;20455;-89
2023/04/29 11:24:05;;;;;;;5.57;4.12;;;;;;;25.12;60.57;99505.72;4377249;32;20083;-87
2023/04/29 11:26:34;;;;;;;5.78;3.80;;;;;;;25.13;60.57;99503.88;4365233;32;20126;-90
2023/04/29 11:28:59;;;;;;;5.22;3.58;;;;;;;25.06;60.56;99509.78;4352866;32;20103;-89